sensor_id;sensor_type;location;lat;lon;timestamp;P1;durP1;ratioP1;P2;durP2;ratioP2
75216;SDS011;63800;51.972;5.682;2023-11-19T00:01:26;15.30;;;11.00;;
75216;SDS011;63800;51.972;5.682;2023-11-19T00:03:51;14.75;;;10.43;;
75216;SDS011;63800;51.972;5.682;2023-11-19T00:06:18;14.85;;;10.27;;
75216;SDS011;63800;51.972;5.682;2023-11-19T00:08:43;15.07;;;10.00;;
75216;SDS011;63800;51.972;5.682;2023-11-19T00:11:09;17.38;;;9.70;;
75216;SDS011;63800;51.972;5.682;2023-11-19T00:13:35;11.65;;;8.50;;
75216;SDS011;63800;51.972;5.682;2023-11-19T00:16:00;16.02;;;8.82;;
75216;SDS011;63800;51.972;5.682;2023-11-19T00:18:25;13.82;;;8.95;;
75216;SDS011;63800;51.972;5.682;2023-11-19T00:20:51;14.55;;;8.60;;
75216;SDS011;63800;51.972;5.682;2023-11-19T00:23:16;14.18;;;8.68;;
75216;SDS011;63800;51.972;5.682;2023-11-19T00:25:42;13.43;;;8.07;;
75216;SDS011;63800;51.972;5.682;2023-11-19T00:28:07;13.98;;;7.43;;
75216;SDS011;63800;51.972;5.682;2023-11-19T00:30:33;13.55;;;6.82;;
75216;SDS011;63800;51.972;5.682;2023-11-19T00:32:58;13.65;;;6.43;;
75216;SDS011;63800;51.972;5.682;2023-11-19T00:35:23;19.80;;;7.00;;
75216;SDS011;63800;51.972;5.682;2023-11-19T00:37:49;13.80;;;6.00;;
75216;SDS011;63800;51.972;5.682;2023-11-19T00:40:15;15.30;;;6.72;;
75216;SDS011;63800;51.972;5.682;2023-11-19T00:42:43;12.27;;;6.78;;
75216;SDS011;63800;51.972;5.682;2023-11-19T00:45:09;15.23;;;6.35;;
75216;SDS011;63800;51.972;5.682;2023-11-19T00:47:35;17.40;;;6.47;;
75216;SDS011;63800;51.972;5.682;2023-11-19T00:50:01;12.30;;;6.30;;
75216;SDS011;63800;51.972;5.682;2023-11-19T00:52:27;13.40;;;6.22;;
75216;SDS011;63800;51.972;5.682;2023-11-19T00:54:53;12.48;;;6.28;;
75216;SDS011;63800;51.972;5.682;2023-11-19T00:57:18;14.68;;;6.28;;
75216;SDS011;63800;51.972;5.682;2023-11-19T00:59:44;17.75;;;6.43;;
75216;SDS011;63800;51.972;5.682;2023-11-19T01:02:10;15.07;;;5.60;;
75216;SDS011;63800;51.972;5.682;2023-11-19T01:04:36;15.20;;;6.35;;
75216;SDS011;63800;51.972;5.682;2023-11-19T01:07:02;14.73;;;6.28;;
75216;SDS011;63800;51.972;5.682;2023-11-19T01:09:33;12.07;;;5.75;;
75216;SDS011;63800;51.972;5.682;2023-11-19T01:12:02;13.13;;;5.90;;
75216;SDS011;63800;51.972;5.682;2023-11-19T01:14:28;15.05;;;5.15;;
75216;SDS011;63800;51.972;5.682;2023-11-19T01:16:54;14.15;;;5.53;;
75216;SDS011;63800;51.972;5.682;2023-11-19T01:19:19;12.27;;;5.32;;
75216;SDS011;63800;51.972;5.682;2023-11-19T01:21:46;16.77;;;5.15;;
75216;SDS011;63800;51.972;5.682;2023-11-19T01:24:11;21.42;;;6.43;;
75216;SDS011;63800;51.972;5.682;2023-11-19T01:26:38;15.50;;;5.78;;
75216;SDS011;63800;51.972;5.682;2023-11-19T01:29:03;15.18;;;5.82;;
75216;SDS011;63800;51.972;5.682;2023-11-19T01:31:30;16.42;;;5.57;;
75216;SDS011;63800;51.972;5.682;2023-11-19T01:33:57;18.20;;;5.63;;
75216;SDS011;63800;51.972;5.682;2023-11-19T01:36:22;17.92;;;6.80;;
75216;SDS011;63800;51.972;5.682;2023-11-19T01:38:48;14.98;;;5.03;;
75216;SDS011;63800;51.972;5.682;2023-11-19T01:41:14;19.27;;;6.32;;
75216;SDS011;63800;51.972;5.682;2023-11-19T01:43:39;20.02;;;5.50;;
75216;SDS011;63800;51.972;5.682;2023-11-19T01:46:07;18.48;;;5.18;;
75216;SDS011;63800;51.972;5.682;2023-11-19T01:48:36;11.57;;;4.32;;
75216;SDS011;63800;51.972;5.682;2023-11-19T01:51:08;15.23;;;5.00;;
75216;SDS011;63800;51.972;5.682;2023-11-19T01:53:34;16.35;;;4.72;;
75216;SDS011;63800;51.972;5.682;2023-11-19T01:56:01;19.25;;;5.53;;
75216;SDS011;63800;51.972;5.682;2023-11-19T01:58:28;13.65;;;4.40;;
75216;SDS011;63800;51.972;5.682;2023-11-19T02:00:55;17.67;;;4.57;;
75216;SDS011;63800;51.972;5.682;2023-11-19T02:03:21;13.68;;;4.93;;
75216;SDS011;63800;51.972;5.682;2023-11-19T02:05:48;19.17;;;5.28;;
75216;SDS011;63800;51.972;5.682;2023-11-19T02:08:15;15.55;;;4.05;;
75216;SDS011;63800;51.972;5.682;2023-11-19T02:10:41;16.25;;;4.25;;
75216;SDS011;63800;51.972;5.682;2023-11-19T02:13:06;22.20;;;4.70;;
75216;SDS011;63800;51.972;5.682;2023-11-19T02:15:32;17.38;;;5.03;;
75216;SDS011;63800;51.972;5.682;2023-11-19T02:18:16;14.60;;;4.45;;
75216;SDS011;63800;51.972;5.682;2023-11-19T02:20:46;17.10;;;5.22;;
75216;SDS011;63800;51.972;5.682;2023-11-19T02:23:13;20.48;;;4.93;;
75216;SDS011;63800;51.972;5.682;2023-11-19T02:25:38;19.83;;;4.43;;
75216;SDS011;63800;51.972;5.682;2023-11-19T02:28:05;18.15;;;5.25;;
75216;SDS011;63800;51.972;5.682;2023-11-19T02:30:32;20.63;;;5.45;;
75216;SDS011;63800;51.972;5.682;2023-11-19T02:32:58;18.77;;;5.35;;
75216;SDS011;63800;51.972;5.682;2023-11-19T02:35:26;16.67;;;5.25;;
75216;SDS011;63800;51.972;5.682;2023-11-19T02:37:52;18.40;;;4.03;;
75216;SDS011;63800;51.972;5.682;2023-11-19T02:40:18;18.33;;;5.45;;
75216;SDS011;63800;51.972;5.682;2023-11-19T02:42:44;24.55;;;5.00;;
75216;SDS011;63800;51.972;5.682;2023-11-19T02:45:10;19.20;;;4.72;;
75216;SDS011;63800;51.972;5.682;2023-11-19T02:47:42;22.67;;;4.75;;
75216;SDS011;63800;51.972;5.682;2023-11-19T02:50:11;20.33;;;4.70;;
75216;SDS011;63800;51.972;5.682;2023-11-19T02:52:41;18.40;;;4.47;;
75216;SDS011;63800;51.972;5.682;2023-11-19T02:55:07;23.73;;;4.88;;
75216;SDS011;63800;51.972;5.682;2023-11-19T02:57:38;21.55;;;5.13;;
75216;SDS011;63800;51.972;5.682;2023-11-19T03:00:11;27.70;;;5.88;;
75216;SDS011;63800;51.972;5.682;2023-11-19T03:02:43;17.45;;;4.25;;
75216;SDS011;63800;51.972;5.682;2023-11-19T03:05:14;26.27;;;5.22;;
75216;SDS011;63800;51.972;5.682;2023-11-19T03:07:42;24.50;;;5.32;;
75216;SDS011;63800;51.972;5.682;2023-11-19T03:10:11;33.67;;;5.90;;
75216;SDS011;63800;51.972;5.682;2023-11-19T03:12:40;23.25;;;6.25;;
75216;SDS011;63800;51.972;5.682;2023-11-19T03:15:06;19.55;;;4.97;;
75216;SDS011;63800;51.972;5.682;2023-11-19T03:17:35;28.23;;;6.65;;
75216;SDS011;63800;51.972;5.682;2023-11-19T03:20:05;27.23;;;8.07;;
75216;SDS011;63800;51.972;5.682;2023-11-19T03:22:32;31.35;;;8.63;;
75216;SDS011;63800;51.972;5.682;2023-11-19T03:24:59;36.38;;;12.48;;
75216;SDS011;63800;51.972;5.682;2023-11-19T03:27:24;38.53;;;13.82;;
75216;SDS011;63800;51.972;5.682;2023-11-19T03:29:50;40.88;;;12.30;;
75216;SDS011;63800;51.972;5.682;2023-11-19T03:32:15;39.65;;;12.25;;
75216;SDS011;63800;51.972;5.682;2023-11-19T03:34:41;32.15;;;9.45;;
75216;SDS011;63800;51.972;5.682;2023-11-19T03:37:06;30.08;;;8.98;;
75216;SDS011;63800;51.972;5.682;2023-11-19T03:39:31;25.27;;;6.70;;
75216;SDS011;63800;51.972;5.682;2023-11-19T03:41:57;27.20;;;7.38;;
75216;SDS011;63800;51.972;5.682;2023-11-19T03:44:23;24.90;;;6.90;;
75216;SDS011;63800;51.972;5.682;2023-11-19T03:46:52;31.73;;;6.93;;
75216;SDS011;63800;51.972;5.682;2023-11-19T03:49:17;30.30;;;6.15;;
75216;SDS011;63800;51.972;5.682;2023-11-19T03:51:43;25.33;;;4.82;;
75216;SDS011;63800;51.972;5.682;2023-11-19T03:54:08;27.30;;;5.45;;
75216;SDS011;63800;51.972;5.682;2023-11-19T03:56:33;24.10;;;5.72;;
75216;SDS011;63800;51.972;5.682;2023-11-19T03:58:59;22.90;;;6.20;;
75216;SDS011;63800;51.972;5.682;2023-11-19T04:01:24;34.80;;;7.20;;
75216;SDS011;63800;51.972;5.682;2023-11-19T04:03:50;30.17;;;8.95;;
75216;SDS011;63800;51.972;5.682;2023-11-19T04:06:15;40.83;;;14.93;;
75216;SDS011;63800;51.972;5.682;2023-11-19T04:08:41;48.85;;;18.00;;
75216;SDS011;63800;51.972;5.682;2023-11-19T04:11:06;46.42;;;16.02;;
75216;SDS011;63800;51.972;5.682;2023-11-19T04:13:33;36.60;;;13.27;;
75216;SDS011;63800;51.972;5.682;2023-11-19T04:15:59;37.78;;;11.75;;
75216;SDS011;63800;51.972;5.682;2023-11-19T04:18:25;37.03;;;10.07;;
75216;SDS011;63800;51.972;5.682;2023-11-19T04:20:50;31.08;;;8.20;;
75216;SDS011;63800;51.972;5.682;2023-11-19T04:23:16;29.40;;;8.13;;
75216;SDS011;63800;51.972;5.682;2023-11-19T04:25:41;30.33;;;7.25;;
75216;SDS011;63800;51.972;5.682;2023-11-19T04:28:07;28.75;;;6.65;;
75216;SDS011;63800;51.972;5.682;2023-11-19T04:30:33;30.80;;;6.70;;
75216;SDS011;63800;51.972;5.682;2023-11-19T04:32:59;35.25;;;7.35;;
75216;SDS011;63800;51.972;5.682;2023-11-19T04:35:24;27.60;;;5.65;;
75216;SDS011;63800;51.972;5.682;2023-11-19T04:37:50;24.65;;;6.00;;
75216;SDS011;63800;51.972;5.682;2023-11-19T04:40:16;25.38;;;5.32;;
75216;SDS011;63800;51.972;5.682;2023-11-19T04:42:43;28.42;;;6.03;;
75216;SDS011;63800;51.972;5.682;2023-11-19T04:45:09;25.13;;;5.63;;
75216;SDS011;63800;51.972;5.682;2023-11-19T04:47:35;28.75;;;5.57;;
75216;SDS011;63800;51.972;5.682;2023-11-19T04:50:01;33.80;;;6.07;;
75216;SDS011;63800;51.972;5.682;2023-11-19T04:52:28;30.77;;;7.07;;
75216;SDS011;63800;51.972;5.682;2023-11-19T04:54:53;30.83;;;5.38;;
75216;SDS011;63800;51.972;5.682;2023-11-19T04:57:19;33.65;;;5.63;;
75216;SDS011;63800;51.972;5.682;2023-11-19T04:59:44;26.80;;;5.15;;
75216;SDS011;63800;51.972;5.682;2023-11-19T05:02:10;25.45;;;5.38;;
75216;SDS011;63800;51.972;5.682;2023-11-19T05:04:35;30.50;;;5.88;;
75216;SDS011;63800;51.972;5.682;2023-11-19T05:07:02;28.08;;;5.00;;
75216;SDS011;63800;51.972;5.682;2023-11-19T05:09:28;27.15;;;5.43;;
75216;SDS011;63800;51.972;5.682;2023-11-19T05:11:53;23.88;;;5.47;;
75216;SDS011;63800;51.972;5.682;2023-11-19T05:14:19;29.75;;;5.60;;
75216;SDS011;63800;51.972;5.682;2023-11-19T05:16:45;25.80;;;5.45;;
75216;SDS011;63800;51.972;5.682;2023-11-19T05:19:11;29.50;;;6.80;;
75216;SDS011;63800;51.972;5.682;2023-11-19T05:21:36;25.40;;;5.20;;
75216;SDS011;63800;51.972;5.682;2023-11-19T05:24:02;35.28;;;5.55;;
75216;SDS011;63800;51.972;5.682;2023-11-19T05:26:30;28.02;;;5.07;;
75216;SDS011;63800;51.972;5.682;2023-11-19T05:28:56;24.85;;;4.78;;
75216;SDS011;63800;51.972;5.682;2023-11-19T05:31:22;28.58;;;5.68;;
75216;SDS011;63800;51.972;5.682;2023-11-19T05:33:47;34.70;;;5.70;;
75216;SDS011;63800;51.972;5.682;2023-11-19T05:36:13;29.50;;;5.30;;
75216;SDS011;63800;51.972;5.682;2023-11-19T05:38:39;39.53;;;6.13;;
75216;SDS011;63800;51.972;5.682;2023-11-19T05:41:04;29.77;;;5.78;;
75216;SDS011;63800;51.972;5.682;2023-11-19T05:43:30;34.17;;;8.10;;
75216;SDS011;63800;51.972;5.682;2023-11-19T05:45:56;21.92;;;5.03;;
75216;SDS011;63800;51.972;5.682;2023-11-19T05:48:22;25.15;;;5.10;;
75216;SDS011;63800;51.972;5.682;2023-11-19T05:50:47;31.50;;;5.75;;
75216;SDS011;63800;51.972;5.682;2023-11-19T05:53:15;36.53;;;5.95;;
75216;SDS011;63800;51.972;5.682;2023-11-19T05:55:40;29.02;;;5.97;;
75216;SDS011;63800;51.972;5.682;2023-11-19T06:00:39;33.03;;;5.57;;
75216;SDS011;63800;51.972;5.682;2023-11-19T06:03:05;24.65;;;5.10;;
75216;SDS011;63800;51.972;5.682;2023-11-19T06:05:32;20.23;;;4.65;;
75216;SDS011;63800;51.972;5.682;2023-11-19T06:07:58;30.08;;;6.10;;
75216;SDS011;63800;51.972;5.682;2023-11-19T06:10:23;25.25;;;5.80;;
75216;SDS011;63800;51.972;5.682;2023-11-19T06:12:55;32.40;;;6.53;;
75216;SDS011;63800;51.972;5.682;2023-11-19T06:15:25;30.95;;;6.80;;
75216;SDS011;63800;51.972;5.682;2023-11-19T06:17:52;28.35;;;5.82;;
75216;SDS011;63800;51.972;5.682;2023-11-19T06:20:18;32.95;;;6.07;;
75216;SDS011;63800;51.972;5.682;2023-11-19T06:22:45;29.75;;;6.15;;
75216;SDS011;63800;51.972;5.682;2023-11-19T06:25:10;28.73;;;5.45;;
75216;SDS011;63800;51.972;5.682;2023-11-19T06:27:36;30.20;;;7.00;;
75216;SDS011;63800;51.972;5.682;2023-11-19T06:30:02;30.23;;;5.38;;
75216;SDS011;63800;51.972;5.682;2023-11-19T06:32:28;30.92;;;6.72;;
75216;SDS011;63800;51.972;5.682;2023-11-19T06:34:54;27.00;;;7.07;;
75216;SDS011;63800;51.972;5.682;2023-11-19T06:37:20;37.78;;;6.63;;
75216;SDS011;63800;51.972;5.682;2023-11-19T06:39:45;34.92;;;6.97;;
75216;SDS011;63800;51.972;5.682;2023-11-19T06:42:10;24.58;;;5.20;;
75216;SDS011;63800;51.972;5.682;2023-11-19T06:44:36;28.48;;;5.43;;
75216;SDS011;63800;51.972;5.682;2023-11-19T06:47:01;27.25;;;6.03;;
75216;SDS011;63800;51.972;5.682;2023-11-19T06:49:27;33.25;;;5.72;;
75216;SDS011;63800;51.972;5.682;2023-11-19T06:51:52;31.25;;;5.97;;
75216;SDS011;63800;51.972;5.682;2023-11-19T06:54:18;31.83;;;6.55;;
75216;SDS011;63800;51.972;5.682;2023-11-19T06:56:43;27.55;;;5.75;;
75216;SDS011;63800;51.972;5.682;2023-11-19T06:59:09;33.63;;;6.63;;
75216;SDS011;63800;51.972;5.682;2023-11-19T07:01:35;24.17;;;5.20;;
75216;SDS011;63800;51.972;5.682;2023-11-19T07:04:01;31.27;;;5.72;;
75216;SDS011;63800;51.972;5.682;2023-11-19T07:06:33;31.40;;;5.32;;
75216;SDS011;63800;51.972;5.682;2023-11-19T07:08:58;28.77;;;5.78;;
75216;SDS011;63800;51.972;5.682;2023-11-19T07:11:24;26.50;;;5.35;;
75216;SDS011;63800;51.972;5.682;2023-11-19T07:13:49;31.67;;;6.72;;
75216;SDS011;63800;51.972;5.682;2023-11-19T07:16:15;27.50;;;6.35;;
75216;SDS011;63800;51.972;5.682;2023-11-19T07:18:40;31.52;;;6.07;;
75216;SDS011;63800;51.972;5.682;2023-11-19T07:21:08;29.67;;;6.32;;
75216;SDS011;63800;51.972;5.682;2023-11-19T07:23:35;28.85;;;5.95;;
75216;SDS011;63800;51.972;5.682;2023-11-19T07:26:01;35.28;;;7.53;;
75216;SDS011;63800;51.972;5.682;2023-11-19T07:28:26;27.05;;;5.53;;
75216;SDS011;63800;51.972;5.682;2023-11-19T07:30:53;30.90;;;6.53;;
75216;SDS011;63800;51.972;5.682;2023-11-19T07:33:21;24.15;;;5.65;;
75216;SDS011;63800;51.972;5.682;2023-11-19T07:35:46;29.70;;;5.85;;
75216;SDS011;63800;51.972;5.682;2023-11-19T07:38:13;32.97;;;7.38;;
75216;SDS011;63800;51.972;5.682;2023-11-19T07:40:38;35.53;;;6.45;;
75216;SDS011;63800;51.972;5.682;2023-11-19T07:43:03;27.95;;;5.70;;
75216;SDS011;63800;51.972;5.682;2023-11-19T07:45:29;32.75;;;6.22;;
75216;SDS011;63800;51.972;5.682;2023-11-19T07:47:54;26.42;;;4.63;;
75216;SDS011;63800;51.972;5.682;2023-11-19T07:50:20;33.38;;;5.93;;
75216;SDS011;63800;51.972;5.682;2023-11-19T07:52:45;20.38;;;5.57;;
75216;SDS011;63800;51.972;5.682;2023-11-19T07:55:11;28.00;;;5.47;;
75216;SDS011;63800;51.972;5.682;2023-11-19T07:57:37;27.10;;;4.88;;
75216;SDS011;63800;51.972;5.682;2023-11-19T08:00:02;27.95;;;4.82;;
75216;SDS011;63800;51.972;5.682;2023-11-19T08:02:29;33.38;;;5.88;;
75216;SDS011;63800;51.972;5.682;2023-11-19T08:04:54;27.67;;;5.45;;
75216;SDS011;63800;51.972;5.682;2023-11-19T08:07:20;27.48;;;4.78;;
75216;SDS011;63800;51.972;5.682;2023-11-19T08:09:47;26.95;;;4.80;;
75216;SDS011;63800;51.972;5.682;2023-11-19T08:12:12;25.63;;;5.82;;
75216;SDS011;63800;51.972;5.682;2023-11-19T08:14:40;33.55;;;5.55;;
75216;SDS011;63800;51.972;5.682;2023-11-19T08:17:06;32.42;;;5.95;;
75216;SDS011;63800;51.972;5.682;2023-11-19T08:19:32;28.48;;;5.13;;
75216;SDS011;63800;51.972;5.682;2023-11-19T08:21:57;29.95;;;5.85;;
75216;SDS011;63800;51.972;5.682;2023-11-19T08:24:23;28.02;;;5.32;;
75216;SDS011;63800;51.972;5.682;2023-11-19T08:26:48;29.48;;;5.28;;
75216;SDS011;63800;51.972;5.682;2023-11-19T08:29:14;28.73;;;5.38;;
75216;SDS011;63800;51.972;5.682;2023-11-19T08:31:39;26.20;;;4.93;;
75216;SDS011;63800;51.972;5.682;2023-11-19T08:34:05;26.88;;;4.57;;
75216;SDS011;63800;51.972;5.682;2023-11-19T08:36:33;25.15;;;6.57;;
75216;SDS011;63800;51.972;5.682;2023-11-19T08:38:59;23.92;;;5.55;;
75216;SDS011;63800;51.972;5.682;2023-11-19T08:41:25;28.25;;;5.45;;
75216;SDS011;63800;51.972;5.682;2023-11-19T08:43:50;25.95;;;5.05;;
75216;SDS011;63800;51.972;5.682;2023-11-19T08:46:16;31.08;;;5.57;;
75216;SDS011;63800;51.972;5.682;2023-11-19T08:48:42;25.20;;;5.03;;
75216;SDS011;63800;51.972;5.682;2023-11-19T08:51:07;23.65;;;4.30;;
75216;SDS011;63800;51.972;5.682;2023-11-19T08:53:33;29.33;;;4.72;;
75216;SDS011;63800;51.972;5.682;2023-11-19T08:55:58;23.90;;;4.82;;
75216;SDS011;63800;51.972;5.682;2023-11-19T08:58:25;24.70;;;5.50;;
75216;SDS011;63800;51.972;5.682;2023-11-19T09:00:51;20.73;;;4.85;;
75216;SDS011;63800;51.972;5.682;2023-11-19T09:03:16;24.98;;;4.70;;
75216;SDS011;63800;51.972;5.682;2023-11-19T09:05:41;26.35;;;4.88;;
75216;SDS011;63800;51.972;5.682;2023-11-19T09:08:07;24.65;;;4.80;;
75216;SDS011;63800;51.972;5.682;2023-11-19T09:10:33;21.38;;;4.82;;
75216;SDS011;63800;51.972;5.682;2023-11-19T09:12:58;23.63;;;5.43;;
75216;SDS011;63800;51.972;5.682;2023-11-19T09:15:24;24.52;;;6.53;;
75216;SDS011;63800;51.972;5.682;2023-11-19T09:17:49;28.20;;;5.07;;
75216;SDS011;63800;51.972;5.682;2023-11-19T09:20:15;26.88;;;4.50;;
75216;SDS011;63800;51.972;5.682;2023-11-19T09:22:41;23.77;;;4.72;;
75216;SDS011;63800;51.972;5.682;2023-11-19T09:25:07;22.45;;;4.97;;
75216;SDS011;63800;51.972;5.682;2023-11-19T09:27:33;32.47;;;6.28;;
75216;SDS011;63800;51.972;5.682;2023-11-19T09:29:58;28.92;;;5.10;;
75216;SDS011;63800;51.972;5.682;2023-11-19T09:32:24;30.90;;;5.72;;
75216;SDS011;63800;51.972;5.682;2023-11-19T09:34:50;28.00;;;5.35;;
75216;SDS011;63800;51.972;5.682;2023-11-19T09:37:15;28.63;;;5.55;;
75216;SDS011;63800;51.972;5.682;2023-11-19T09:39:41;21.42;;;4.82;;
75216;SDS011;63800;51.972;5.682;2023-11-19T09:42:09;22.90;;;5.70;;
75216;SDS011;63800;51.972;5.682;2023-11-19T09:44:35;22.67;;;5.30;;
75216;SDS011;63800;51.972;5.682;2023-11-19T09:47:03;20.60;;;4.78;;
75216;SDS011;63800;51.972;5.682;2023-11-19T09:49:30;24.77;;;6.18;;
75216;SDS011;63800;51.972;5.682;2023-11-19T09:51:56;29.75;;;6.85;;
75216;SDS011;63800;51.972;5.682;2023-11-19T09:54:23;24.65;;;5.03;;
75216;SDS011;63800;51.972;5.682;2023-11-19T09:56:48;31.48;;;5.55;;
75216;SDS011;63800;51.972;5.682;2023-11-19T09:59:14;29.75;;;5.05;;
75216;SDS011;63800;51.972;5.682;2023-11-19T10:01:40;30.15;;;5.78;;
75216;SDS011;63800;51.972;5.682;2023-11-19T10:04:06;27.58;;;5.40;;
75216;SDS011;63800;51.972;5.682;2023-11-19T10:06:32;29.92;;;6.80;;
75216;SDS011;63800;51.972;5.682;2023-11-19T10:08:57;24.33;;;4.90;;
75216;SDS011;63800;51.972;5.682;2023-11-19T10:11:24;26.65;;;6.15;;
75216;SDS011;63800;51.972;5.682;2023-11-19T10:13:51;26.38;;;4.78;;
75216;SDS011;63800;51.972;5.682;2023-11-19T10:16:18;28.50;;;5.15;;
75216;SDS011;63800;51.972;5.682;2023-11-19T10:18:48;32.53;;;6.07;;
75216;SDS011;63800;51.972;5.682;2023-11-19T10:21:17;30.67;;;5.53;;
75216;SDS011;63800;51.972;5.682;2023-11-19T10:23:50;23.83;;;5.38;;
75216;SDS011;63800;51.972;5.682;2023-11-19T10:26:22;21.58;;;4.97;;
75216;SDS011;63800;51.972;5.682;2023-11-19T10:28:48;29.50;;;5.10;;
75216;SDS011;63800;51.972;5.682;2023-11-19T10:31:17;26.55;;;5.28;;
75216;SDS011;63800;51.972;5.682;2023-11-19T10:33:45;22.65;;;5.13;;
75216;SDS011;63800;51.972;5.682;2023-11-19T10:36:11;22.33;;;4.65;;
75216;SDS011;63800;51.972;5.682;2023-11-19T10:38:38;20.92;;;4.65;;
75216;SDS011;63800;51.972;5.682;2023-11-19T10:41:04;25.60;;;5.15;;
75216;SDS011;63800;51.972;5.682;2023-11-19T10:43:30;22.75;;;5.45;;
75216;SDS011;63800;51.972;5.682;2023-11-19T10:46:09;23.08;;;4.43;;
75216;SDS011;63800;51.972;5.682;2023-11-19T10:48:35;22.58;;;5.07;;
75216;SDS011;63800;51.972;5.682;2023-11-19T10:51:01;19.58;;;5.20;;
75216;SDS011;63800;51.972;5.682;2023-11-19T10:53:32;21.80;;;4.93;;
75216;SDS011;63800;51.972;5.682;2023-11-19T10:56:01;20.30;;;5.07;;
75216;SDS011;63800;51.972;5.682;2023-11-19T10:58:29;18.38;;;4.40;;
75216;SDS011;63800;51.972;5.682;2023-11-19T11:00:57;23.50;;;5.07;;
75216;SDS011;63800;51.972;5.682;2023-11-19T11:03:36;18.42;;;5.00;;
75216;SDS011;63800;51.972;5.682;2023-11-19T11:06:04;22.80;;;4.85;;
75216;SDS011;63800;51.972;5.682;2023-11-19T11:08:31;23.23;;;5.35;;
75216;SDS011;63800;51.972;5.682;2023-11-19T11:10:57;29.10;;;5.28;;
75216;SDS011;63800;51.972;5.682;2023-11-19T11:13:23;23.70;;;4.28;;
75216;SDS011;63800;51.972;5.682;2023-11-19T11:15:50;18.55;;;4.40;;
75216;SDS011;63800;51.972;5.682;2023-11-19T11:18:16;23.83;;;5.15;;
75216;SDS011;63800;51.972;5.682;2023-11-19T11:20:46;20.80;;;4.82;;
75216;SDS011;63800;51.972;5.682;2023-11-19T11:34:07;26.27;;;5.10;;
75216;SDS011;63800;51.972;5.682;2023-11-19T11:36:44;26.05;;;5.22;;
75216;SDS011;63800;51.972;5.682;2023-11-19T11:39:28;30.60;;;5.90;;
75216;SDS011;63800;51.972;5.682;2023-11-19T11:42:55;24.05;;;4.97;;
75216;SDS011;63800;51.972;5.682;2023-11-19T11:50:28;25.08;;;4.63;;
75216;SDS011;63800;51.972;5.682;2023-11-19T11:58:05;26.63;;;4.63;;
75216;SDS011;63800;51.972;5.682;2023-11-19T12:03:05;20.97;;;4.13;;
75216;SDS011;63800;51.972;5.682;2023-11-19T12:05:40;17.75;;;3.80;;
75216;SDS011;63800;51.972;5.682;2023-11-19T12:08:10;16.55;;;4.07;;
75216;SDS011;63800;51.972;5.682;2023-11-19T12:10:47;18.25;;;3.75;;
75216;SDS011;63800;51.972;5.682;2023-11-19T12:13:17;18.15;;;3.70;;
75216;SDS011;63800;51.972;5.682;2023-11-19T12:18:23;13.98;;;3.40;;
75216;SDS011;63800;51.972;5.682;2023-11-19T12:20:51;16.40;;;4.43;;
75216;SDS011;63800;51.972;5.682;2023-11-19T12:23:17;15.00;;;3.35;;
75216;SDS011;63800;51.972;5.682;2023-11-19T12:25:42;20.30;;;3.97;;
75216;SDS011;63800;51.972;5.682;2023-11-19T12:28:13;16.67;;;3.42;;
75216;SDS011;63800;51.972;5.682;2023-11-19T12:30:39;21.67;;;4.60;;
75216;SDS011;63800;51.972;5.682;2023-11-19T12:33:08;16.48;;;4.18;;
75216;SDS011;63800;51.972;5.682;2023-11-19T12:38:21;19.00;;;4.85;;
75216;SDS011;63800;51.972;5.682;2023-11-19T12:40:47;15.02;;;3.88;;
75216;SDS011;63800;51.972;5.682;2023-11-19T12:43:27;14.20;;;3.75;;
75216;SDS011;63800;51.972;5.682;2023-11-19T12:45:53;17.83;;;3.65;;
75216;SDS011;63800;51.972;5.682;2023-11-19T12:48:19;17.35;;;3.58;;
75216;SDS011;63800;51.972;5.682;2023-11-19T12:50:50;16.50;;;3.85;;
75216;SDS011;63800;51.972;5.682;2023-11-19T12:53:18;17.25;;;4.22;;
75216;SDS011;63800;51.972;5.682;2023-11-19T12:55:43;18.63;;;3.83;;
75216;SDS011;63800;51.972;5.682;2023-11-19T12:58:09;17.60;;;3.80;;
75216;SDS011;63800;51.972;5.682;2023-11-19T13:00:36;16.27;;;3.75;;
75216;SDS011;63800;51.972;5.682;2023-11-19T13:03:02;12.07;;;3.25;;
75216;SDS011;63800;51.972;5.682;2023-11-19T13:05:29;17.55;;;4.20;;
75216;SDS011;63800;51.972;5.682;2023-11-19T13:10:31;14.80;;;3.83;;
75216;SDS011;63800;51.972;5.682;2023-11-19T13:13:16;21.83;;;4.07;;
75216;SDS011;63800;51.972;5.682;2023-11-19T13:15:42;17.33;;;4.22;;
75216;SDS011;63800;51.972;5.682;2023-11-19T13:18:10;23.73;;;4.65;;
75216;SDS011;63800;51.972;5.682;2023-11-19T13:20:36;17.63;;;4.18;;
75216;SDS011;63800;51.972;5.682;2023-11-19T13:23:02;20.45;;;4.70;;
75216;SDS011;63800;51.972;5.682;2023-11-19T13:25:29;18.23;;;4.75;;
75216;SDS011;63800;51.972;5.682;2023-11-19T13:27:55;21.80;;;4.43;;
75216;SDS011;63800;51.972;5.682;2023-11-19T13:30:21;21.65;;;4.97;;
75216;SDS011;63800;51.972;5.682;2023-11-19T13:32:48;21.20;;;4.25;;
75216;SDS011;63800;51.972;5.682;2023-11-19T13:35:14;18.42;;;5.03;;
75216;SDS011;63800;51.972;5.682;2023-11-19T13:37:40;18.30;;;4.78;;
75216;SDS011;63800;51.972;5.682;2023-11-19T13:40:06;23.35;;;4.93;;
75216;SDS011;63800;51.972;5.682;2023-11-19T13:42:32;23.95;;;4.72;;
75216;SDS011;63800;51.972;5.682;2023-11-19T13:44:58;21.15;;;4.32;;
75216;SDS011;63800;51.972;5.682;2023-11-19T13:47:23;22.50;;;4.50;;
75216;SDS011;63800;51.972;5.682;2023-11-19T13:49:49;20.25;;;4.32;;
75216;SDS011;63800;51.972;5.682;2023-11-19T13:52:15;15.73;;;3.88;;
75216;SDS011;63800;51.972;5.682;2023-11-19T13:54:40;17.60;;;4.45;;
75216;SDS011;63800;51.972;5.682;2023-11-19T13:57:06;18.58;;;4.53;;
75216;SDS011;63800;51.972;5.682;2023-11-19T13:59:31;18.25;;;4.25;;
75216;SDS011;63800;51.972;5.682;2023-11-19T14:01:59;20.13;;;4.22;;
75216;SDS011;63800;51.972;5.682;2023-11-19T14:04:25;17.40;;;4.18;;
75216;SDS011;63800;51.972;5.682;2023-11-19T14:06:51;13.40;;;3.70;;
75216;SDS011;63800;51.972;5.682;2023-11-19T14:09:16;20.00;;;4.80;;
75216;SDS011;63800;51.972;5.682;2023-11-19T14:11:42;23.30;;;4.07;;
75216;SDS011;63800;51.972;5.682;2023-11-19T14:14:08;24.05;;;4.10;;
75216;SDS011;63800;51.972;5.682;2023-11-19T14:16:34;15.73;;;3.38;;
75216;SDS011;63800;51.972;5.682;2023-11-19T14:18:59;19.63;;;4.30;;
75216;SDS011;63800;51.972;5.682;2023-11-19T14:21:25;18.77;;;4.03;;
75216;SDS011;63800;51.972;5.682;2023-11-19T14:23:51;16.90;;;3.50;;
75216;SDS011;63800;51.972;5.682;2023-11-19T14:26:17;17.08;;;3.60;;
75216;SDS011;63800;51.972;5.682;2023-11-19T14:28:43;14.63;;;3.72;;
75216;SDS011;63800;51.972;5.682;2023-11-19T14:31:08;18.00;;;4.25;;
75216;SDS011;63800;51.972;5.682;2023-11-19T14:33:34;16.15;;;4.15;;
75216;SDS011;63800;51.972;5.682;2023-11-19T14:36:01;20.33;;;4.22;;
75216;SDS011;63800;51.972;5.682;2023-11-19T14:38:27;19.65;;;4.82;;
75216;SDS011;63800;51.972;5.682;2023-11-19T14:40:52;17.27;;;4.20;;
75216;SDS011;63800;51.972;5.682;2023-11-19T14:43:18;19.88;;;4.43;;
75216;SDS011;63800;51.972;5.682;2023-11-19T14:45:43;23.88;;;4.65;;
75216;SDS011;63800;51.972;5.682;2023-11-19T14:48:09;16.33;;;3.85;;
75216;SDS011;63800;51.972;5.682;2023-11-19T14:50:35;15.82;;;3.60;;
75216;SDS011;63800;51.972;5.682;2023-11-19T14:53:00;16.85;;;4.38;;
75216;SDS011;63800;51.972;5.682;2023-11-19T14:55:26;20.20;;;3.88;;
75216;SDS011;63800;51.972;5.682;2023-11-19T14:57:51;17.00;;;3.97;;
75216;SDS011;63800;51.972;5.682;2023-11-19T15:00:17;20.55;;;3.63;;
75216;SDS011;63800;51.972;5.682;2023-11-19T15:02:43;16.60;;;5.32;;
75216;SDS011;63800;51.972;5.682;2023-11-19T15:05:08;21.55;;;4.63;;